sensor_id;sensor_type;location;lat;lon;timestamp;pressure;altitude;pressure_sealevel;temperature;humidity
3082;BME280;1551;51.046;7.010;2023-08-31T00:00:32;100202.72;;;14.92;89.03
3082;BME280;1551;51.046;7.010;2023-08-31T00:03:22;100198.38;;;14.94;88.54
3082;BME280;1551;51.046;7.010;2023-08-31T00:06:11;100201.97;;;14.89;88.63
3082;BME280;1551;51.046;7.010;2023-08-31T00:09:00;100201.03;;;14.91;89.51
3082;BME280;1551;51.046;7.010;2023-08-31T00:11:49;100202.81;;;14.91;89.75
3082;BME280;1551;51.046;7.010;2023-08-31T00:14:38;100199.22;;;14.95;89.35
3082;BME280;1551;51.046;7.010;2023-08-31T00:17:29;100190.19;;;14.83;88.68
3082;BME280;1551;51.046;7.010;2023-08-31T00:20:18;100197.94;;;14.82;89.43
3082;BME280;1551;51.046;7.010;2023-08-31T00:23:08;100183.59;;;14.75;89.23
3082;BME280;1551;51.046;7.010;2023-08-31T00:25:57;100182.88;;;14.71;88.65
3082;BME280;1551;51.046;7.010;2023-08-31T00:28:46;100189.84;;;14.68;89.13
3082;BME280;1551;51.046;7.010;2023-08-31T00:31:35;100179.69;;;14.65;89.70
3082;BME280;1551;51.046;7.010;2023-08-31T00:34:23;100185.00;;;14.60;89.81
3082;BME280;1551;51.046;7.010;2023-08-31T00:37:12;100181.50;;;14.61;89.83
3082;BME280;1551;51.046;7.010;2023-08-31T00:40:03;100192.72;;;14.60;89.41
3082;BME280;1551;51.046;7.010;2023-08-31T00:42:53;100190.00;;;14.65;90.16
3082;BME280;1551;51.046;7.010;2023-08-31T00:45:43;100191.81;;;14.61;89.74
3082;BME280;1551;51.046;7.010;2023-08-31T00:48:33;100197.72;;;14.65;89.14
3082;BME280;1551;51.046;7.010;2023-08-31T00:51:22;100197.59;;;14.68;89.11
3082;BME280;1551;51.046;7.010;2023-08-31T00:54:11;100193.28;;;14.68;88.79
3082;BME280;1551;51.046;7.010;2023-08-31T00:57:00;100205.06;;;14.75;88.37
3082;BME280;1551;51.046;7.010;2023-08-31T00:59:50;100196.34;;;14.79;87.93
3082;BME280;1551;51.046;7.010;2023-08-31T01:02:59;100203.31;;;14.76;87.70
3082;BME280;1551;51.046;7.010;2023-08-31T01:09:36;100199.22;;;14.70;87.46
3082;BME280;1551;51.046;7.010;2023-08-31T01:12:36;100210.22;;;14.75;87.99
3082;BME280;1551;51.046;7.010;2023-08-31T01:15:30;100200.97;;;14.70;87.32
3082;BME280;1551;51.046;7.010;2023-08-31T01:18:22;100200.97;;;14.70;87.68
3082;BME280;1551;51.046;7.010;2023-08-31T01:21:25;100202.59;;;14.72;87.12
3082;BME280;1551;51.046;7.010;2023-08-31T01:24:16;100201.59;;;14.76;87.32
3082;BME280;1551;51.046;7.010;2023-08-31T01:27:05;100198.97;;;14.78;87.39
3082;BME280;1551;51.046;7.010;2023-08-31T01:29:54;100200.84;;;14.73;87.22
3082;BME280;1551;51.046;7.010;2023-08-31T01:32:44;100192.41;;;14.69;87.64
3082;BME280;1551;51.046;7.010;2023-08-31T01:35:44;100209.59;;;14.69;87.32
3082;BME280;1551;51.046;7.010;2023-08-31T01:38:34;100199.59;;;14.60;87.01
3082;BME280;1551;51.046;7.010;2023-08-31T01:41:28;100208.44;;;14.53;87.08
3082;BME280;1551;51.046;7.010;2023-08-31T01:44:19;100206.16;;;14.43;87.31
3082;BME280;1551;51.046;7.010;2023-08-31T01:47:10;100198.84;;;14.31;86.86
3082;BME280;1551;51.046;7.010;2023-08-31T01:49:59;100209.09;;;14.33;87.50
3082;BME280;1551;51.046;7.010;2023-08-31T01:52:48;100217.75;;;14.30;88.19
3082;BME280;1551;51.046;7.010;2023-08-31T01:55:37;100210.94;;;14.28;87.86
3082;BME280;1551;51.046;7.010;2023-08-31T01:58:26;100213.56;;;14.26;87.88
3082;BME280;1551;51.046;7.010;2023-08-31T02:01:15;100218.06;;;14.20;88.34
3082;BME280;1551;51.046;7.010;2023-08-31T02:04:04;100218.94;;;14.19;87.83
3082;BME280;1551;51.046;7.010;2023-08-31T02:06:54;100215.59;;;14.17;87.92
3082;BME280;1551;51.046;7.010;2023-08-31T02:09:43;100218.38;;;14.11;87.77
3082;BME280;1551;51.046;7.010;2023-08-31T02:12:35;100218.53;;;14.06;87.92
3082;BME280;1551;51.046;7.010;2023-08-31T02:15:28;100225.25;;;14.10;87.81
3082;BME280;1551;51.046;7.010;2023-08-31T02:18:17;100227.06;;;14.07;88.00
3082;BME280;1551;51.046;7.010;2023-08-31T02:21:06;100221.97;;;14.05;88.24
3082;BME280;1551;51.046;7.010;2023-08-31T02:23:56;100235.84;;;14.01;87.72
3082;BME280;1551;51.046;7.010;2023-08-31T02:26:44;100232.75;;;13.90;87.99
3082;BME280;1551;51.046;7.010;2023-08-31T02:29:34;100238.88;;;13.86;88.28
3082;BME280;1551;51.046;7.010;2023-08-31T02:32:23;100236.50;;;13.80;88.84
3082;BME280;1551;51.046;7.010;2023-08-31T02:35:12;100234.16;;;13.72;88.75
3082;BME280;1551;51.046;7.010;2023-08-31T02:38:01;100230.03;;;13.67;89.60
3082;BME280;1551;51.046;7.010;2023-08-31T02:40:50;100230.94;;;13.64;89.63
3082;BME280;1551;51.046;7.010;2023-08-31T02:43:39;100233.78;;;13.57;89.91
3082;BME280;1551;51.046;7.010;2023-08-31T02:46:29;100227.78;;;13.56;90.21
3082;BME280;1551;51.046;7.010;2023-08-31T02:49:18;100227.22;;;13.47;90.19
3082;BME280;1551;51.046;7.010;2023-08-31T02:52:07;100224.72;;;13.44;90.86
3082;BME280;1551;51.046;7.010;2023-08-31T02:54:56;100224.78;;;13.42;90.75
3082;BME280;1551;51.046;7.010;2023-08-31T02:57:44;100228.13;;;13.44;90.67
3082;BME280;1551;51.046;7.010;2023-08-31T03:00:34;100233.47;;;13.38;90.32
3082;BME280;1551;51.046;7.010;2023-08-31T03:03:23;100228.59;;;13.29;90.98
3082;BME280;1551;51.046;7.010;2023-08-31T03:06:12;100229.53;;;13.27;91.27
3082;BME280;1551;51.046;7.010;2023-08-31T03:09:01;100233.03;;;13.23;91.09
3082;BME280;1551;51.046;7.010;2023-08-31T03:11:50;100233.16;;;13.18;91.96
3082;BME280;1551;51.046;7.010;2023-08-31T03:14:39;100228.97;;;13.16;91.71
3082;BME280;1551;51.046;7.010;2023-08-31T03:17:29;100226.63;;;13.08;91.54
3082;BME280;1551;51.046;7.010;2023-08-31T03:20:18;100237.72;;;13.08;92.07
3082;BME280;1551;51.046;7.010;2023-08-31T03:23:07;100236.59;;;13.19;92.29
3082;BME280;1551;51.046;7.010;2023-08-31T03:25:56;100232.97;;;13.26;91.71
3082;BME280;1551;51.046;7.010;2023-08-31T03:28:44;100233.53;;;13.35;91.87
3082;BME280;1551;51.046;7.010;2023-08-31T03:31:33;100238.28;;;13.49;91.68
3082;BME280;1551;51.046;7.010;2023-08-31T03:34:22;100240.84;;;13.49;91.21
3082;BME280;1551;51.046;7.010;2023-08-31T03:37:11;100237.94;;;13.61;91.53
3082;BME280;1551;51.046;7.010;2023-08-31T03:40:01;100236.88;;;13.68;91.00
3082;BME280;1551;51.046;7.010;2023-08-31T03:42:51;100237.34;;;13.81;91.26
3082;BME280;1551;51.046;7.010;2023-08-31T03:45:42;100238.69;;;13.92;90.37
3082;BME280;1551;51.046;7.010;2023-08-31T03:48:31;100239.41;;;13.97;90.07
3082;BME280;1551;51.046;7.010;2023-08-31T03:51:20;100240.22;;;13.98;90.63
3082;BME280;1551;51.046;7.010;2023-08-31T03:54:09;100243.47;;;14.04;90.72
3082;BME280;1551;51.046;7.010;2023-08-31T03:56:58;100245.69;;;14.15;90.29
3082;BME280;1551;51.046;7.010;2023-08-31T03:59:47;100245.53;;;14.19;90.33
3082;BME280;1551;51.046;7.010;2023-08-31T04:02:36;100246.16;;;14.27;90.09
3082;BME280;1551;51.046;7.010;2023-08-31T04:05:26;100244.19;;;14.35;90.15
3082;BME280;1551;51.046;7.010;2023-08-31T04:08:15;100245.66;;;14.42;89.87
3082;BME280;1551;51.046;7.010;2023-08-31T04:11:04;100249.81;;;14.46;89.62
3082;BME280;1551;51.046;7.010;2023-08-31T04:13:53;100256.66;;;14.48;89.06
3082;BME280;1551;51.046;7.010;2023-08-31T04:16:42;100255.56;;;14.55;88.64
3082;BME280;1551;51.046;7.010;2023-08-31T04:19:31;100250.34;;;14.56;88.85
3082;BME280;1551;51.046;7.010;2023-08-31T04:22:20;100248.63;;;14.57;88.63
3082;BME280;1551;51.046;7.010;2023-08-31T04:25:09;100258.78;;;14.61;87.99
3082;BME280;1551;51.046;7.010;2023-08-31T04:27:58;100248.38;;;14.64;87.42
3082;BME280;1551;51.046;7.010;2023-08-31T04:30:46;100249.31;;;14.62;87.14
3082;BME280;1551;51.046;7.010;2023-08-31T04:33:37;100261.31;;;14.63;86.97
3082;BME280;1551;51.046;7.010;2023-08-31T04:36:26;100267.41;;;14.60;87.11
3082;BME280;1551;51.046;7.010;2023-08-31T04:39:15;100272.19;;;14.71;86.75
3082;BME280;1551;51.046;7.010;2023-08-31T04:42:04;100275.41;;;14.77;86.23
3082;BME280;1551;51.046;7.010;2023-08-31T04:44:53;100278.78;;;14.79;86.12
3082;BME280;1551;51.046;7.010;2023-08-31T04:47:42;100275.53;;;14.74;85.79
3082;BME280;1551;51.046;7.010;2023-08-31T04:50:31;100280.69;;;14.74;85.83
3082;BME280;1551;51.046;7.010;2023-08-31T04:53:20;100279.06;;;14.70;85.65
3082;BME280;1551;51.046;7.010;2023-08-31T04:56:09;100272.34;;;14.66;85.31
3082;BME280;1551;51.046;7.010;2023-08-31T04:58:59;100285.53;;;14.57;85.59
3082;BME280;1551;51.046;7.010;2023-08-31T05:01:47;100284.78;;;14.54;85.64
3082;BME280;1551;51.046;7.010;2023-08-31T05:04:36;100285.88;;;14.46;85.35
3082;BME280;1551;51.046;7.010;2023-08-31T05:07:25;100292.06;;;14.41;85.87
3082;BME280;1551;51.046;7.010;2023-08-31T05:10:14;100288.94;;;14.31;85.99
3082;BME280;1551;51.046;7.010;2023-08-31T05:13:03;100302.88;;;14.24;86.16
3082;BME280;1551;51.046;7.010;2023-08-31T05:15:53;100302.22;;;14.18;86.49
3082;BME280;1551;51.046;7.010;2023-08-31T05:18:42;100307.41;;;14.16;86.69
3082;BME280;1551;51.046;7.010;2023-08-31T05:21:31;100316.81;;;14.17;86.73
3082;BME280;1551;51.046;7.010;2023-08-31T05:24:20;100318.38;;;14.23;86.97
3082;BME280;1551;51.046;7.010;2023-08-31T05:27:09;100321.03;;;14.20;86.80
3082;BME280;1551;51.046;7.010;2023-08-31T05:29:58;100332.41;;;14.13;86.68
3082;BME280;1551;51.046;7.010;2023-08-31T05:32:47;100329.06;;;14.09;86.68
3082;BME280;1551;51.046;7.010;2023-08-31T05:35:36;100336.91;;;14.06;87.09
3082;BME280;1551;51.046;7.010;2023-08-31T05:38:25;100338.47;;;14.10;87.23
3082;BME280;1551;51.046;7.010;2023-08-31T05:41:13;100341.75;;;14.15;87.43
3082;BME280;1551;51.046;7.010;2023-08-31T05:44:02;100341.41;;;14.27;87.79
3082;BME280;1551;51.046;7.010;2023-08-31T05:46:52;100322.66;;;14.22;87.21
3082;BME280;1551;51.046;7.010;2023-08-31T05:49:41;100341.41;;;14.27;86.66
3082;BME280;1551;51.046;7.010;2023-08-31T05:52:30;100336.28;;;14.26;86.46
3082;BME280;1551;51.046;7.010;2023-08-31T05:55:19;100347.97;;;14.37;86.99
3082;BME280;1551;51.046;7.010;2023-08-31T05:58:08;100347.50;;;14.53;86.88
3082;BME280;1551;51.046;7.010;2023-08-31T06:00:57;100350.66;;;14.61;86.98
3082;BME280;1551;51.046;7.010;2023-08-31T06:03:46;100347.81;;;14.70;86.37
3082;BME280;1551;51.046;7.010;2023-08-31T06:06:35;100349.72;;;14.63;85.94
3082;BME280;1551;51.046;7.010;2023-08-31T06:09:24;100346.72;;;14.77;86.50
3082;BME280;1551;51.046;7.010;2023-08-31T06:12:13;100361.91;;;14.84;85.63
3082;BME280;1551;51.046;7.010;2023-08-31T06:15:02;100353.13;;;14.90;85.97
3082;BME280;1551;51.046;7.010;2023-08-31T06:17:52;100358.59;;;15.05;85.74
3082;BME280;1551;51.046;7.010;2023-08-31T06:20:41;100365.25;;;15.12;84.86
3082;BME280;1551;51.046;7.010;2023-08-31T06:23:30;100366.72;;;15.20;84.98
3082;BME280;1551;51.046;7.010;2023-08-31T06:26:18;100375.84;;;15.30;84.47
3082;BME280;1551;51.046;7.010;2023-08-31T06:29:07;100379.66;;;15.43;83.83
3082;BME280;1551;51.046;7.010;2023-08-31T06:31:59;100382.53;;;15.60;83.53
3082;BME280;1551;51.046;7.010;2023-08-31T06:34:48;100382.16;;;15.94;82.83
3082;BME280;1551;51.046;7.010;2023-08-31T06:37:37;100383.19;;;16.13;81.90
3082;BME280;1551;51.046;7.010;2023-08-31T06:40:25;100383.19;;;16.13;81.12
3082;BME280;1551;51.046;7.010;2023-08-31T06:43:14;100381.06;;;16.22;80.67
3082;BME280;1551;51.046;7.010;2023-08-31T06:46:04;100379.63;;;16.37;79.64
3082;BME280;1551;51.046;7.010;2023-08-31T06:48:53;100380.84;;;16.50;78.60
3082;BME280;1551;51.046;7.010;2023-08-31T06:51:42;100378.47;;;16.67;78.02
3082;BME280;1551;51.046;7.010;2023-08-31T06:54:30;100384.75;;;16.82;76.99
3082;BME280;1551;51.046;7.010;2023-08-31T06:57:19;100377.22;;;16.97;76.67
3082;BME280;1551;51.046;7.010;2023-08-31T07:00:09;100376.28;;;17.20;76.01
3082;BME280;1551;51.046;7.010;2023-08-31T07:03:00;100382.41;;;17.38;75.64
3082;BME280;1551;51.046;7.010;2023-08-31T07:05:49;100383.19;;;17.60;74.38
3082;BME280;1551;51.046;7.010;2023-08-31T07:08:38;100379.75;;;17.59;73.40
3082;BME280;1551;51.046;7.010;2023-08-31T07:11:29;100386.34;;;17.66;73.92
3082;BME280;1551;51.046;7.010;2023-08-31T07:14:18;100384.88;;;17.79;73.05
3082;BME280;1551;51.046;7.010;2023-08-31T07:17:07;100386.91;;;18.12;72.55
3082;BME280;1551;51.046;7.010;2023-08-31T07:19:56;100392.63;;;18.56;71.42
3082;BME280;1551;51.046;7.010;2023-08-31T07:22:45;100392.25;;;18.99;69.84
3082;BME280;1551;51.046;7.010;2023-08-31T07:25:34;100399.25;;;19.14;68.93
3082;BME280;1551;51.046;7.010;2023-08-31T07:28:23;100396.94;;;18.91;69.63
3082;BME280;1551;51.046;7.010;2023-08-31T07:31:12;100394.50;;;19.05;68.42
3082;BME280;1551;51.046;7.010;2023-08-31T07:34:01;100407.56;;;19.03;68.02
3082;BME280;1551;51.046;7.010;2023-08-31T07:36:52;100403.34;;;19.18;67.49
3082;BME280;1551;51.046;7.010;2023-08-31T07:39:41;100408.50;;;19.37;67.02
3082;BME280;1551;51.046;7.010;2023-08-31T07:42:30;100408.41;;;19.21;66.84
3082;BME280;1551;51.046;7.010;2023-08-31T07:45:19;100416.00;;;18.90;67.16
3082;BME280;1551;51.046;7.010;2023-08-31T07:48:07;100419.75;;;19.01;67.11
3082;BME280;1551;51.046;7.010;2023-08-31T07:50:56;100416.03;;;19.24;65.98
3082;BME280;1551;51.046;7.010;2023-08-31T07:53:45;100425.28;;;19.47;66.07
3082;BME280;1551;51.046;7.010;2023-08-31T07:56:34;100428.72;;;19.64;65.30
3082;BME280;1551;51.046;7.010;2023-08-31T07:59:23;100434.16;;;19.60;64.92
3082;BME280;1551;51.046;7.010;2023-08-31T08:02:12;100428.47;;;20.02;64.14
3082;BME280;1551;51.046;7.010;2023-08-31T08:05:01;100434.91;;;20.27;63.31
3082;BME280;1551;51.046;7.010;2023-08-31T08:07:51;100444.63;;;20.24;63.05
3082;BME280;1551;51.046;7.010;2023-08-31T08:10:40;100436.25;;;20.50;62.79
3082;BME280;1551;51.046;7.010;2023-08-31T08:13:29;100441.63;;;21.23;61.18
3082;BME280;1551;51.046;7.010;2023-08-31T08:16:18;100434.97;;;21.48;60.07
3082;BME280;1551;51.046;7.010;2023-08-31T08:19:07;100441.66;;;20.92;60.59
3082;BME280;1551;51.046;7.010;2023-08-31T08:21:56;100448.66;;;20.45;61.31
3082;BME280;1551;51.046;7.010;2023-08-31T08:24:45;100444.19;;;20.16;61.55
3082;BME280;1551;51.046;7.010;2023-08-31T08:27:34;100455.00;;;20.24;62.21
3082;BME280;1551;51.046;7.010;2023-08-31T08:30:25;100452.72;;;20.18;62.29
3082;BME280;1551;51.046;7.010;2023-08-31T08:33:14;100454.47;;;20.17;62.59
3082;BME280;1551;51.046;7.010;2023-08-31T08:36:03;100452.56;;;20.21;62.51
3082;BME280;1551;51.046;7.010;2023-08-31T08:38:53;100451.91;;;20.33;62.76
3082;BME280;1551;51.046;7.010;2023-08-31T08:41:42;100449.63;;;20.11;62.48
3082;BME280;1551;51.046;7.010;2023-08-31T08:44:33;100453.63;;;20.01;62.61
3082;BME280;1551;51.046;7.010;2023-08-31T08:47:25;100453.34;;;20.38;62.73
3082;BME280;1551;51.046;7.010;2023-08-31T08:50:15;100451.22;;;20.92;61.95
3082;BME280;1551;51.046;7.010;2023-08-31T08:53:05;100444.91;;;21.41;60.55
3082;BME280;1551;51.046;7.010;2023-08-31T08:55:54;100451.16;;;21.97;59.39
3082;BME280;1551;51.046;7.010;2023-08-31T08:58:43;100448.84;;;21.92;58.27
3082;BME280;1551;51.046;7.010;2023-08-31T09:01:34;100455.72;;;21.93;57.93
3082;BME280;1551;51.046;7.010;2023-08-31T09:04:23;100458.16;;;21.96;57.09
3082;BME280;1551;51.046;7.010;2023-08-31T09:07:12;100454.50;;;22.13;56.88
3082;BME280;1551;51.046;7.010;2023-08-31T09:10:01;100457.88;;;22.70;55.58
3082;BME280;1551;51.046;7.010;2023-08-31T09:12:52;100456.66;;;23.02;54.20
3082;BME280;1551;51.046;7.010;2023-08-31T09:15:46;100464.19;;;22.80;54.41
3082;BME280;1551;51.046;7.010;2023-08-31T09:18:36;100443.47;;;22.64;54.54
3082;BME280;1551;51.046;7.010;2023-08-31T09:21:37;100453.66;;;23.20;53.47
3082;BME280;1551;51.046;7.010;2023-08-31T09:24:39;100453.91;;;23.30;51.92
3082;BME280;1551;51.046;7.010;2023-08-31T09:27:29;100460.66;;;23.20;52.21
3082;BME280;1551;51.046;7.010;2023-08-31T09:30:20;100462.41;;;23.46;51.40
3082;BME280;1551;51.046;7.010;2023-08-31T09:33:19;100461.47;;;23.47;51.12
3082;BME280;1551;51.046;7.010;2023-08-31T09:36:11;100460.44;;;23.87;50.35
3082;BME280;1551;51.046;7.010;2023-08-31T09:39:00;100465.78;;;24.24;50.18
3082;BME280;1551;51.046;7.010;2023-08-31T09:41:55;100466.38;;;24.40;49.42
3082;BME280;1551;51.046;7.010;2023-08-31T09:44:45;100467.53;;;24.36;48.53
3082;BME280;1551;51.046;7.010;2023-08-31T09:47:38;100463.19;;;23.86;48.24
3082;BME280;1551;51.046;7.010;2023-08-31T09:50:31;100469.75;;;23.79;48.65
3082;BME280;1551;51.046;7.010;2023-08-31T09:53:21;100471.53;;;24.16;48.31
3082;BME280;1551;51.046;7.010;2023-08-31T09:56:18;100467.47;;;23.74;48.14
3082;BME280;1551;51.046;7.010;2023-08-31T09:59:14;100456.16;;;23.49;48.35
3082;BME280;1551;51.046;7.010;2023-08-31T10:02:03;100468.03;;;23.40;49.31
3082;BME280;1551;51.046;7.010;2023-08-31T10:04:52;100470.38;;;23.57;48.69
3082;BME280;1551;51.046;7.010;2023-08-31T10:07:42;100475.09;;;24.15;47.28
3082;BME280;1551;51.046;7.010;2023-08-31T10:10:33;100481.41;;;24.85;45.41
3082;BME280;1551;51.046;7.010;2023-08-31T10:13:23;100467.44;;;24.25;46.54
3082;BME280;1551;51.046;7.010;2023-08-31T10:16:13;100469.34;;;25.54;45.03
3082;BME280;1551;51.046;7.010;2023-08-31T10:19:04;100467.78;;;24.56;44.99
3082;BME280;1551;51.046;7.010;2023-08-31T10:21:53;100471.66;;;24.15;45.63
3082;BME280;1551;51.046;7.010;2023-08-31T10:25:01;100457.84;;;23.62;46.47
3082;BME280;1551;51.046;7.010;2023-08-31T10:27:52;100480.44;;;22.56;47.97
3082;BME280;1551;51.046;7.010;2023-08-31T10:30:41;100485.13;;;21.95;49.29
3082;BME280;1551;51.046;7.010;2023-08-31T10:33:32;100467.44;;;21.86;49.34
3082;BME280;1551;51.046;7.010;2023-08-31T10:36:21;100482.09;;;21.73;50.76
3082;BME280;1551;51.046;7.010;2023-08-31T10:39:15;100482.84;;;21.75;51.21
3082;BME280;1551;51.046;7.010;2023-08-31T10:42:10;100479.28;;;21.92;50.27
3082;BME280;1551;51.046;7.010;2023-08-31T10:45:06;100478.22;;;22.91;48.88
3082;BME280;1551;51.046;7.010;2023-08-31T10:48:00;100469.84;;;23.40;47.76
3082;BME280;1551;51.046;7.010;2023-08-31T10:50:49;100475.66;;;25.27;43.29
3082;BME280;1551;51.046;7.010;2023-08-31T10:53:38;100465.75;;;23.48;45.06
3082;BME280;1551;51.046;7.010;2023-08-31T10:56:29;100481.38;;;22.41;47.76
3082;BME280;1551;51.046;7.010;2023-08-31T10:59:19;100486.44;;;22.16;49.06
3082;BME280;1551;51.046;7.010;2023-08-31T11:02:09;100467.84;;;22.63;48.84
3082;BME280;1551;51.046;7.010;2023-08-31T11:05:15;100477.22;;;24.59;44.70
3082;BME280;1551;51.046;7.010;2023-08-31T11:08:04;100475.69;;;25.04;44.66
3082;BME280;1551;51.046;7.010;2023-08-31T11:10:54;100473.19;;;24.30;45.27
3082;BME280;1551;51.046;7.010;2023-08-31T11:13:42;100465.63;;;22.71;48.32
3082;BME280;1551;51.046;7.010;2023-08-31T11:16:31;100465.25;;;22.63;49.61
3082;BME280;1551;51.046;7.010;2023-08-31T11:19:20;100459.72;;;22.27;49.56
3082;BME280;1551;51.046;7.010;2023-08-31T11:22:09;100452.63;;;22.29;49.39
3082;BME280;1551;51.046;7.010;2023-08-31T11:24:58;100451.03;;;23.98;46.94
3082;BME280;1551;51.046;7.010;2023-08-31T11:30:44;100454.19;;;27.11;40.51
3082;BME280;1551;51.046;7.010;2023-08-31T11:33:35;100460.81;;;25.04;43.20
3082;BME280;1551;51.046;7.010;2023-08-31T11:36:26;100451.38;;;25.82;41.41
3082;BME280;1551;51.046;7.010;2023-08-31T11:39:17;100453.63;;;27.28;39.19
3082;BME280;1551;51.046;7.010;2023-08-31T11:42:06;100439.22;;;27.43;37.82
3082;BME280;1551;51.046;7.010;2023-08-31T11:44:55;100445.59;;;27.61;37.17
3082;BME280;1551;51.046;7.010;2023-08-31T11:47:45;100461.44;;;28.90;35.55
3082;BME280;1551;51.046;7.010;2023-08-31T11:50:35;100451.47;;;27.54;36.68
3082;BME280;1551;51.046;7.010;2023-08-31T11:53:24;100443.44;;;26.71;38.02
3082;BME280;1551;51.046;7.010;2023-08-31T11:56:13;100436.44;;;26.60;39.48
3082;BME280;1551;51.046;7.010;2023-08-31T11:59:02;100430.25;;;25.51;41.63
3082;BME280;1551;51.046;7.010;2023-08-31T12:01:51;100438.00;;;24.70;43.45
3082;BME280;1551;51.046;7.010;2023-08-31T12:04:44;100430.25;;;25.16;43.48
3082;BME280;1551;51.046;7.010;2023-08-31T12:07:39;100446.13;;;26.92;39.35
3082;BME280;1551;51.046;7.010;2023-08-31T12:10:29;100426.16;;;25.01;41.64
3082;BME280;1551;51.046;7.010;2023-08-31T12:13:18;100447.69;;;26.07;41.40
3082;BME280;1551;51.046;7.010;2023-08-31T12:16:11;100435.31;;;26.20;41.49
3082;BME280;1551;51.046;7.010;2023-08-31T12:19:02;100434.66;;;26.50;40.96
3082;BME280;1551;51.046;7.010;2023-08-31T12:21:53;100437.84;;;27.07;39.63
3082;BME280;1551;51.046;7.010;2023-08-31T12:24:41;100468.59;;;28.20;37.10
3082;BME280;1551;51.046;7.010;2023-08-31T12:27:31;100462.63;;;26.07;39.13
3082;BME280;1551;51.046;7.010;2023-08-31T12:30:20;100450.09;;;25.99;40.42
3082;BME280;1551;51.046;7.010;2023-08-31T12:33:09;100438.25;;;26.49;39.64
3082;BME280;1551;51.046;7.010;2023-08-31T12:35:59;100448.53;;;27.68;37.80
3082;BME280;1551;51.046;7.010;2023-08-31T12:38:49;100442.81;;;26.25;39.87
3082;BME280;1551;51.046;7.010;2023-08-31T12:41:39;100447.66;;;24.93;42.20
3082;BME280;1551;51.046;7.010;2023-08-31T12:44:27;100453.66;;;23.85;44.75
3082;BME280;1551;51.046;7.010;2023-08-31T12:47:16;100444.47;;;23.15;47.01
3082;BME280;1551;51.046;7.010;2023-08-31T12:50:06;100441.47;;;22.68;49.33
3082;BME280;1551;51.046;7.010;2023-08-31T12:52:55;100453.97;;;22.48;50.21
3082;BME280;1551;51.046;7.010;2023-08-31T12:55:44;100448.13;;;22.45;49.46
3082;BME280;1551;51.046;7.010;2023-08-31T12:58:33;100440.44;;;22.15;47.01
3082;BME280;1551;51.046;7.010;2023-08-31T13:01:22;100443.19;;;22.40;46.77
3082;BME280;1551;51.046;7.010;2023-08-31T13:04:15;100430.38;;;22.23;46.39
3082;BME280;1551;51.046;7.010;2023-08-31T13:07:04;100443.66;;;22.33;46.47
3082;BME280;1551;51.046;7.010;2023-08-31T13:09:54;100447.59;;;23.72;44.06
3082;BME280;1551;51.046;7.010;2023-08-31T13:12:42;100451.03;;;25.06;41.93
3082;BME280;1551;51.046;7.010;2023-08-31T13:15:32;100441.72;;;24.55;42.76
3082;BME280;1551;51.046;7.010;2023-08-31T13:18:21;100454.25;;;25.34;41.69
3082;BME280;1551;51.046;7.010;2023-08-31T13:21:10;100439.75;;;25.06;42.74
3082;BME280;1551;51.046;7.010;2023-08-31T13:23:59;100443.19;;;25.41;42.96
3082;BME280;1551;51.046;7.010;2023-08-31T13:26:49;100457.34;;;25.95;41.44
3082;BME280;1551;51.046;7.010;2023-08-31T13:29:38;100442.41;;;25.52;42.35
3082;BME280;1551;51.046;7.010;2023-08-31T13:32:27;100443.59;;;23.91;45.54
3082;BME280;1551;51.046;7.010;2023-08-31T13:35:16;100446.50;;;22.97;47.98
3082;BME280;1551;51.046;7.010;2023-08-31T13:38:05;100445.34;;;22.62;49.36
3082;BME280;1551;51.046;7.010;2023-08-31T13:40:55;100449.59;;;22.49;50.53
3082;BME280;1551;51.046;7.010;2023-08-31T13:43:45;100447.31;;;22.30;51.92
3082;BME280;1551;51.046;7.010;2023-08-31T13:46:34;100444.81;;;22.29;53.55
3082;BME280;1551;51.046;7.010;2023-08-31T13:49:23;100451.03;;;22.81;53.40
3082;BME280;1551;51.046;7.010;2023-08-31T13:52:12;100450.69;;;24.27;50.24
3082;BME280;1551;51.046;7.010;2023-08-31T13:55:02;100452.06;;;24.93;48.16
3082;BME280;1551;51.046;7.010;2023-08-31T13:57:52;100451.25;;;23.94;48.60
3082;BME280;1551;51.046;7.010;2023-08-31T14:00:41;100443.09;;;24.84;46.85
3082;BME280;1551;51.046;7.010;2023-08-31T14:03:30;100449.72;;;25.01;44.60
3082;BME280;1551;51.046;7.010;2023-08-31T14:06:19;100447.50;;;24.71;43.30
3082;BME280;1551;51.046;7.010;2023-08-31T14:09:08;100447.81;;;25.03;42.89
3082;BME280;1551;51.046;7.010;2023-08-31T14:11:57;100447.66;;;24.57;42.90
3082;BME280;1551;51.046;7.010;2023-08-31T14:14:47;100458.81;;;24.72;41.95
3082;BME280;1551;51.046;7.010;2023-08-31T14:17:36;100449.75;;;24.65;42.13
3082;BME280;1551;51.046;7.010;2023-08-31T14:20:25;100440.00;;;25.14;41.73
3082;BME280;1551;51.046;7.010;2023-08-31T14:23:14;100444.84;;;24.96;42.44
3082;BME280;1551;51.046;7.010;2023-08-31T14:26:03;100439.41;;;25.10;42.52
3082;BME280;1551;51.046;7.010;2023-08-31T14:28:53;100434.50;;;24.58;43.86
3082;BME280;1551;51.046;7.010;2023-08-31T14:31:42;100433.44;;;24.61;44.28
3082;BME280;1551;51.046;7.010;2023-08-31T14:34:31;100440.41;;;24.49;43.88
3082;BME280;1551;51.046;7.010;2023-08-31T14:37:20;100447.25;;;24.63;43.58
3082;BME280;1551;51.046;7.010;2023-08-31T14:40:10;100445.84;;;24.34;44.14
3082;BME280;1551;51.046;7.010;2023-08-31T14:42:59;100440.88;;;24.18;44.21
3082;BME280;1551;51.046;7.010;2023-08-31T14:45:49;100451.94;;;24.34;44.04
3082;BME280;1551;51.046;7.010;2023-08-31T14:48:38;100452.78;;;24.22;43.90
3082;BME280;1551;51.046;7.010;2023-08-31T14:51:27;100447.28;;;23.76;44.18
3082;BME280;1551;51.046;7.010;2023-08-31T14:54:16;100455.69;;;23.42;44.71
3082;BME280;1551;51.046;7.010;2023-08-31T14:57:05;100450.03;;;23.23;45.48
3082;BME280;1551;51.046;7.010;2023-08-31T14:59:55;100451.13;;;23.19;46.11
3082;BME280;1551;51.046;7.010;2023-08-31T15:02:47;100450.84;;;23.23;46.12
3082;BME280;1551;51.046;7.010;2023-08-31T15:05:37;100447.13;;;23.40;46.19
3082;BME280;1551;51.046;7.010;2023-08-31T15:08:40;100459.38;;;23.40;46.93
3082;BME280;1551;51.046;7.010;2023-08-31T15:11:30;100461.59;;;23.19;46.63
3082;BME280;1551;51.046;7.010;2023-08-31T15:14:19;100467.88;;;22.90;47.63
3082;BME280;1551;51.046;7.010;2023-08-31T15:17:08;100481.13;;;22.87;47.66